World Earthquakes Live™ YouTube
 

MINOR EARTHQUAKE
A minor earthquake hit OFF COAST OF ECUADOR with a moment magnitude of Mw 3.8 at a depth of 5 km (shallow-focus earthquake, 1h and 59m ago)

Great Quakes: Kobe, Japan (part 1) Watch! Introductory Astronomy - Lecture #20 - The Distant Universe Watch! A course on Earthquakes Watch! Introductory Astronomy - Lecture #1 - A Grand Tour of the Heavens Watch! World Geography [Lecture 3] Watch! World Geography - Sub Saharan Africa [Lecture 14, Part 2] Watch! Thematic Map Design [Lecture 3] Watch! Mega Disasters - Earthquake in Heartland - part 4 Watch! The Sun: All about it Watch! Volcanoes: Computer simulations of erupting magma column Watch!
In 2021, a number of 0 (strong to major) earthquakes were recorded worldwide, of which: 0 earthquakes between Mw 6.5 and Mw 6.9, 0 earthquakes between Mw 7.0 and Mw 7.9, 0 earthquakes between Mw 8.0 and Mw 8.9 and 0 earthquakes greater than Mw 9.0
1 Users Online United States (100.00%)
UTC time Lat. Lon. Mag. Dep. Zone/Region EMSC
2021-06-16T13:59:03.0Z-1.59°S-81.05°WM3.85 OFF COAST OF ECUADOR
2021-06-16T13:54:16.7Z19.21°N-155.46°WM2.235 ISLAND OF HAWAII, HAWAII
2021-06-16T13:22:10.1Z51.62°N16.13°EM4.010 POLAND
2021-06-16T13:00:19.5Z19.58°N-64.8°WM3.939 VIRGIN ISLANDS REGION
2021-06-16T12:59:32.9Z38.18°N15.09°EM2.010 SICILY, ITALY
2021-06-16T12:56:03.1Z19.81°N-155.04°WM2.643 ISLAND OF HAWAII, HAWAII
2021-06-16T12:54:40.1Z33.19°N-116.4°WM2.28 SOUTHERN CALIFORNIA
2021-06-16T12:54:03.0Z11.03°N-86.5°WM3.018 NEAR COAST OF NICARAGUA
2021-06-16T12:52:33.3Z19.25°N-64.92°WM4.410 VIRGIN ISLANDS REGION
2021-06-16T12:40:35.0Z-1.47°S-80.91°WM3.55 NEAR COAST OF ECUADOR
2021-06-16T12:37:22.8Z19.37°N-155.04°WM2.35 ISLAND OF HAWAII, HAWAII
2021-06-16T12:31:43.2Z38.19°N15.11°EM2.29 SICILY, ITALY
2021-06-16T12:25:42.5Z38.19°N15.11°EM2.210 SICILY, ITALY
2021-06-16T12:03:51.7Z38.19°N-2.34°WM2.210 SPAIN
2021-06-16T12:00:57.6Z33.25°N-116.2°WM2.29 SOUTHERN CALIFORNIA
2021-06-16T12:00:22.0Z58.04°N-151.66°WM3.045 KODIAK ISLAND REGION, ALASKA
2021-06-16T11:55:02.7Z37.91°N27.13°EM2.42 WESTERN TURKEY
2021-06-16T11:44:52.4Z45.18°N16.41°EM2.30 CROATIA
2021-06-16T11:26:13.1Z38.18°N15.11°EM2.010 SICILY, ITALY
2021-06-16T11:15:30.8Z19.21°N-155.44°WM2.133 ISLAND OF HAWAII, HAWAII
2021-06-16T11:10:53.2Z38.19°N15.12°EM2.37 SICILY, ITALY
2021-06-16T11:07:42.9Z38.18°N15.11°EM2.310 SICILY, ITALY
2021-06-16T11:05:55.0Z-4.69°S130.72°EM4.298 BANDA SEA
2021-06-16T11:02:41.0Z18.83°N-70.34°WM2.9111 DOMINICAN REPUBLIC
2021-06-16T10:59:17.7Z38.19°N15.11°EM2.29 SICILY, ITALY
2021-06-16T10:44:15.0Z56.89°N-156.44°WM2.580 ALASKA PENINSULA
2021-06-16T10:22:33.0Z7.65°N124.91°EM3.01 MINDANAO, PHILIPPINES
2021-06-16T10:06:52.1Z32.43°N-102.05°WM2.84 WESTERN TEXAS
2021-06-16T10:06:39.0Z-31.49°S-70.44°WM3.2118 SAN JUAN, ARGENTINA
2021-06-16T09:58:48.0Z16.42°N-95.16°WM3.7100 OAXACA, MEXICO
UTC time Lat. Lon. Mag. Dep. Zone/Region USGS
2021-06-16, 15:36:5137.41°N-121.76°WM1.35 8KM NE OF ALUM ROCK, CA
2021-06-16, 15:34:1635.66°N-117.53°WM1.99 14KM ENE OF RIDGECREST, CA
2021-06-16, 15:33:1463.12°N-151.34°WM1.80 50 KM SSE OF DENALI NATIONAL PARK, ALASKA
2021-06-16, 15:08:4364.84°N-148.49°WM1.718 22 KM W OF ESTER, ALASKA
2021-06-16, 14:56:2559°N-135.93°WM3.20 36 KM WSW OF MUD BAY, ALASKA
2021-06-16, 14:46:5236.22°N-117.92°WM1.34 10KM SE OF OLANCHA, CA
2021-06-16, 14:32:0838.16°N-117.82°WM1.17 36 KM SE OF MINA, NEVADA
2021-06-16, 13:54:1619.21°N-155.46°WM2.235 2 KM E OF PāHALA, HAWAII
2021-06-16, 13:31:2133.13°N-115.63°WM1.17 11KM W OF CALIPATRIA, CA
2021-06-16, 13:00:1919.58°N-64.8°WM3.939 137 KM N OF CHARLOTTE AMALIE, U.S. VIRGIN ISLANDS
2021-06-16, 12:56:0319.81°N-155.04°WM2.643 6 KM ENE OF PāPA‘IKOU, HAWAII
2021-06-16, 12:53:1860°N-153.46°WM2.0144 43 KM ENE OF PEDRO BAY, ALASKA
2021-06-16, 12:52:3419.47°N-64.86°WM4.230 125 KM N OF CHARLOTTE AMALIE, U.S. VIRGIN ISLANDS
2021-06-16, 12:52:0160.13°N-140.68°WM1.60 84 KM NW OF YAKUTAT, ALASKA
2021-06-16, 12:51:5738.54°N-122.31°WM1.8-0 13KM ESE OF ANGWIN, CA
2021-06-16, 12:37:2219.37°N-155.04°WM2.35 14 KM SE OF FERN FOREST, HAWAII
2021-06-16, 12:37:2219.38°N-155.22°WM2.016 6 KM SSE OF VOLCANO, HAWAII
2021-06-16, 12:33:5064.83°N-148.57°WM1.413 CENTRAL ALASKA
2021-06-16, 12:33:0464.83°N-148.45°WM1.414 20 KM W OF ESTER, ALASKA
2021-06-16, 12:29:4144.49°N-115.21°WM1.96 36 KM NW OF STANLEY, IDAHO
2021-06-16, 12:20:1036.68°N-121.4°WM1.96 14KM SSW OF TRES PINOS, CA
2021-06-16, 12:08:4233.07°N-115.58°WM1.39 6KM NE OF WESTMORLAND, CA
2021-06-16, 12:01:0533.17°N-115.68°WM1.35 16KM NNW OF WESTMORLAND, CA
2021-06-16, 12:00:2258.04°N-151.65°WM3.045 51 KM ENE OF OUZINKIE, ALASKA
2021-06-16, 11:52:4661.79°N-148.78°WM1.131 1 KM NNW OF SUTTON-ALPINE, ALASKA
2021-06-16, 11:36:4762.79°N-148.39°WM1.510 72 KM SSE OF CANTWELL, ALASKA
2021-06-16, 11:27:2438.16°N-117.81°WM1.47 36 KM SE OF MINA, NEVADA
2021-06-16, 11:25:4838.78°N-122.77°WM1.41 1KM WNW OF THE GEYSERS, CA
2021-06-16, 11:15:3019.21°N-155.44°WM2.133 4 KM ENE OF PāHALA, HAWAII
2021-06-16, 11:10:5233.19°N-115.66°WM1.21 14KM WSW OF NILAND, CA
GLOBAL SEISMIC RISK
NOW: NORMAL SEISMIC RISK
Light to moderate earthquakes could take place!
SIGNIFICANT EARTHQUAKES IN JUNE 2021
No significant Mw 6.5+ earthquakes occured in June 2021!
MOST RISKY AREAS FOR A Mw 6.5+ EARTHQUAKE IN JUNE 2021
01. JAPAN (14.15%)
02. MEXICO (9.03%)
03. CHILE (8.29%)
04. KERMADEC ISLANDS (8.28%)
05. INDONESIA (7.24%)
06. ALEUTIAN ISLANDS (5.95%)
07. CALIFORNIA (5.57%)
08. PAPUA NEW GUINEA (5.35%)
09. SUMATRA (4.65%)
10. IRAN (4.39%)
11. PERU (3.95%)
12. GUATEMALA (3.91%)
13. RUSSIA (3.2%)
14. CANADA (2.89%)
15. GREECE (2.52%)
MOST RISKY DAYS FOR A Mw 6.5+ EARTHQUAKE TO OCCUR IN THE WORLD
01. SUNDAY (15.7377%)
02. TUESDAY (15%)
03. FRIDAY (14.7541%)
04. SATURDAY (14.1803%)
05. MONDAY (13.9344%)
06. WEDNESDAY (13.9344%)
07. THURSDAY (12.459%)